ZPPP/KMG METAR and TAF weather

Enter ICAO airport designator
Station Type Date Time Source
ZPPP METAR 2021/05/14 14:00 UTC NOAA

ZPPP 141400Z 22009MPS CAVOK 19/10 Q1015 NOSIG


Station Type Date Time Source
ZPPP Decoded METAR 2021/05/14 14:00 UTC NOAA

Kunming, China (ZPPP) 25-01N 102-41E 1892M
May 14, 2021 - 10:00 AM EDT / 2021.05.14 1400 UTC
Wind: from the SW (220 degrees) at 20 MPH (17 KT):0
Visibility: greater than 7 mile(s):0
Temperature: 66 F (19 C)
Dew Point: 50 F (10 C)
Relative Humidity: 55%
Pressure (altimeter): 29.97 in. Hg (1015 hPa)
ob: ZPPP 141400Z 22009MPS CAVOK 19/10 Q1015 NOSIG
cycle: 14

Station Type Date Time Source
ZPPP TAF 2021/05/14 12:03 UTC NOAA

TAF ZPPP 140906Z 1412/1512 23006MPS 9999 SCT026 TX27/1508Z TN14/1423Z
BECMG 1502/1503 23011G17MPS
BECMG 1511/1512 23006MPS

Example: see airport list